sensor_id;sensor_type;location;lat;lon;timestamp;P1;durP1;ratioP1;P2;durP2;ratioP2
5841;SDS011;2947;52.276;9.946;2022-11-20T00:01:47;14.77;;;8.33;;
5841;SDS011;2947;52.276;9.946;2022-11-20T00:04:13;14.57;;;7.87;;
5841;SDS011;2947;52.276;9.946;2022-11-20T00:06:39;13.83;;;8.00;;
5841;SDS011;2947;52.276;9.946;2022-11-20T00:09:05;16.83;;;9.10;;
5841;SDS011;2947;52.276;9.946;2022-11-20T00:11:31;17.60;;;8.07;;
5841;SDS011;2947;52.276;9.946;2022-11-20T00:13:58;14.80;;;8.20;;
5841;SDS011;2947;52.276;9.946;2022-11-20T00:16:26;15.20;;;8.27;;
5841;SDS011;2947;52.276;9.946;2022-11-20T00:18:54;17.97;;;8.37;;
5841;SDS011;2947;52.276;9.946;2022-11-20T00:21:20;16.30;;;8.27;;
5841;SDS011;2947;52.276;9.946;2022-11-20T00:23:49;15.03;;;7.80;;
5841;SDS011;2947;52.276;9.946;2022-11-20T00:26:18;18.50;;;9.50;;
5841;SDS011;2947;52.276;9.946;2022-11-20T00:28:48;19.80;;;9.90;;
5841;SDS011;2947;52.276;9.946;2022-11-20T00:31:16;18.03;;;9.17;;
5841;SDS011;2947;52.276;9.946;2022-11-20T00:33:43;19.70;;;7.80;;
5841;SDS011;2947;52.276;9.946;2022-11-20T00:36:13;18.27;;;8.50;;
5841;SDS011;2947;52.276;9.946;2022-11-20T00:38:41;22.20;;;9.43;;
5841;SDS011;2947;52.276;9.946;2022-11-20T00:41:08;18.37;;;8.23;;
5841;SDS011;2947;52.276;9.946;2022-11-20T00:43:37;21.33;;;9.27;;
5841;SDS011;2947;52.276;9.946;2022-11-20T00:46:07;21.33;;;10.03;;
5841;SDS011;2947;52.276;9.946;2022-11-20T00:48:42;14.97;;;8.43;;
5841;SDS011;2947;52.276;9.946;2022-11-20T00:51:09;14.93;;;8.33;;
5841;SDS011;2947;52.276;9.946;2022-11-20T00:53:41;15.23;;;8.50;;
5841;SDS011;2947;52.276;9.946;2022-11-20T00:56:09;15.37;;;8.10;;
5841;SDS011;2947;52.276;9.946;2022-11-20T00:58:38;16.93;;;8.77;;
5841;SDS011;2947;52.276;9.946;2022-11-20T01:03:36;17.50;;;8.37;;
5841;SDS011;2947;52.276;9.946;2022-11-20T01:06:05;17.53;;;8.63;;
5841;SDS011;2947;52.276;9.946;2022-11-20T01:08:40;15.10;;;7.77;;
5841;SDS011;2947;52.276;9.946;2022-11-20T01:11:10;17.40;;;8.80;;
5841;SDS011;2947;52.276;9.946;2022-11-20T01:13:41;17.03;;;8.37;;
5841;SDS011;2947;52.276;9.946;2022-11-20T01:16:10;17.57;;;7.53;;
5841;SDS011;2947;52.276;9.946;2022-11-20T01:18:40;14.37;;;7.30;;
5841;SDS011;2947;52.276;9.946;2022-11-20T01:21:13;18.20;;;7.70;;
5841;SDS011;2947;52.276;9.946;2022-11-20T01:23:45;15.47;;;8.00;;
5841;SDS011;2947;52.276;9.946;2022-11-20T01:26:14;19.67;;;8.50;;
5841;SDS011;2947;52.276;9.946;2022-11-20T01:28:43;15.57;;;8.23;;
5841;SDS011;2947;52.276;9.946;2022-11-20T01:31:13;18.60;;;8.03;;
5841;SDS011;2947;52.276;9.946;2022-11-20T01:33:45;16.93;;;8.10;;
5841;SDS011;2947;52.276;9.946;2022-11-20T01:36:13;16.27;;;8.80;;
5841;SDS011;2947;52.276;9.946;2022-11-20T01:38:40;16.70;;;9.13;;
5841;SDS011;2947;52.276;9.946;2022-11-20T01:41:06;18.27;;;8.90;;
5841;SDS011;2947;52.276;9.946;2022-11-20T01:43:33;23.27;;;10.50;;
5841;SDS011;2947;52.276;9.946;2022-11-20T01:46:00;24.27;;;10.43;;
5841;SDS011;2947;52.276;9.946;2022-11-20T01:48:44;19.03;;;9.90;;
5841;SDS011;2947;52.276;9.946;2022-11-20T01:51:38;20.03;;;9.20;;
5841;SDS011;2947;52.276;9.946;2022-11-20T01:54:09;19.37;;;8.77;;
5841;SDS011;2947;52.276;9.946;2022-11-20T01:56:41;20.43;;;8.53;;
5841;SDS011;2947;52.276;9.946;2022-11-20T01:59:10;18.13;;;9.03;;
5841;SDS011;2947;52.276;9.946;2022-11-20T02:01:38;18.70;;;9.80;;
5841;SDS011;2947;52.276;9.946;2022-11-20T02:04:04;15.57;;;9.23;;
5841;SDS011;2947;52.276;9.946;2022-11-20T02:06:35;21.03;;;8.83;;
5841;SDS011;2947;52.276;9.946;2022-11-20T02:09:06;20.80;;;9.57;;
5841;SDS011;2947;52.276;9.946;2022-11-20T02:11:31;15.53;;;8.10;;
5841;SDS011;2947;52.276;9.946;2022-11-20T02:13:57;17.90;;;8.73;;
5841;SDS011;2947;52.276;9.946;2022-11-20T02:16:29;24.00;;;11.00;;
5841;SDS011;2947;52.276;9.946;2022-11-20T02:18:59;17.23;;;8.40;;
5841;SDS011;2947;52.276;9.946;2022-11-20T02:21:38;18.50;;;7.37;;
5841;SDS011;2947;52.276;9.946;2022-11-20T02:24:19;15.53;;;7.77;;
5841;SDS011;2947;52.276;9.946;2022-11-20T02:26:50;18.83;;;8.90;;
5841;SDS011;2947;52.276;9.946;2022-11-20T02:29:40;15.63;;;7.53;;
5841;SDS011;2947;52.276;9.946;2022-11-20T02:32:24;18.70;;;8.40;;
5841;SDS011;2947;52.276;9.946;2022-11-20T02:34:56;20.17;;;7.57;;
5841;SDS011;2947;52.276;9.946;2022-11-20T02:37:23;16.90;;;9.07;;
5841;SDS011;2947;52.276;9.946;2022-11-20T02:39:55;20.47;;;8.83;;
5841;SDS011;2947;52.276;9.946;2022-11-20T02:42:21;15.33;;;7.80;;
5841;SDS011;2947;52.276;9.946;2022-11-20T02:44:47;17.03;;;7.27;;
5841;SDS011;2947;52.276;9.946;2022-11-20T02:47:12;16.23;;;8.90;;
5841;SDS011;2947;52.276;9.946;2022-11-20T02:49:38;18.50;;;8.27;;
5841;SDS011;2947;52.276;9.946;2022-11-20T02:52:04;17.70;;;7.97;;
5841;SDS011;2947;52.276;9.946;2022-11-20T02:54:29;13.93;;;6.67;;
5841;SDS011;2947;52.276;9.946;2022-11-20T02:56:55;14.90;;;7.07;;
5841;SDS011;2947;52.276;9.946;2022-11-20T02:59:21;14.63;;;7.20;;
5841;SDS011;2947;52.276;9.946;2022-11-20T03:01:47;18.77;;;9.37;;
5841;SDS011;2947;52.276;9.946;2022-11-20T03:04:12;15.70;;;7.90;;
5841;SDS011;2947;52.276;9.946;2022-11-20T03:06:38;14.93;;;7.53;;
5841;SDS011;2947;52.276;9.946;2022-11-20T03:09:04;17.10;;;7.70;;
5841;SDS011;2947;52.276;9.946;2022-11-20T03:11:29;16.13;;;7.93;;
5841;SDS011;2947;52.276;9.946;2022-11-20T03:13:55;17.60;;;7.73;;
5841;SDS011;2947;52.276;9.946;2022-11-20T03:16:22;14.43;;;8.83;;
5841;SDS011;2947;52.276;9.946;2022-11-20T03:18:48;16.60;;;8.30;;
5841;SDS011;2947;52.276;9.946;2022-11-20T03:21:17;15.87;;;7.57;;
5841;SDS011;2947;52.276;9.946;2022-11-20T03:23:43;16.03;;;7.80;;
5841;SDS011;2947;52.276;9.946;2022-11-20T03:26:30;17.60;;;8.37;;
5841;SDS011;2947;52.276;9.946;2022-11-20T03:28:59;15.30;;;7.50;;
5841;SDS011;2947;52.276;9.946;2022-11-20T03:31:31;17.23;;;7.60;;
5841;SDS011;2947;52.276;9.946;2022-11-20T03:34:01;20.13;;;8.23;;
5841;SDS011;2947;52.276;9.946;2022-11-20T03:36:28;17.80;;;8.40;;
5841;SDS011;2947;52.276;9.946;2022-11-20T03:38:54;15.77;;;8.10;;
5841;SDS011;2947;52.276;9.946;2022-11-20T03:41:28;19.97;;;8.60;;
5841;SDS011;2947;52.276;9.946;2022-11-20T03:43:56;14.17;;;7.67;;
5841;SDS011;2947;52.276;9.946;2022-11-20T03:46:24;14.67;;;7.50;;
5841;SDS011;2947;52.276;9.946;2022-11-20T03:48:51;16.20;;;7.90;;
5841;SDS011;2947;52.276;9.946;2022-11-20T03:51:21;12.77;;;7.13;;
5841;SDS011;2947;52.276;9.946;2022-11-20T03:54:05;11.70;;;6.63;;
5841;SDS011;2947;52.276;9.946;2022-11-20T03:56:37;15.03;;;7.00;;
5841;SDS011;2947;52.276;9.946;2022-11-20T03:59:04;17.43;;;8.00;;
5841;SDS011;2947;52.276;9.946;2022-11-20T04:01:32;19.73;;;8.30;;
5841;SDS011;2947;52.276;9.946;2022-11-20T04:04:00;13.30;;;7.10;;
5841;SDS011;2947;52.276;9.946;2022-11-20T04:06:27;15.90;;;7.23;;
5841;SDS011;2947;52.276;9.946;2022-11-20T04:08:56;16.10;;;7.33;;
5841;SDS011;2947;52.276;9.946;2022-11-20T04:11:24;16.57;;;8.20;;
5841;SDS011;2947;52.276;9.946;2022-11-20T04:13:56;17.37;;;7.70;;
5841;SDS011;2947;52.276;9.946;2022-11-20T04:16:24;12.30;;;6.20;;
5841;SDS011;2947;52.276;9.946;2022-11-20T04:18:55;18.30;;;8.23;;
5841;SDS011;2947;52.276;9.946;2022-11-20T04:21:23;14.17;;;6.87;;
5841;SDS011;2947;52.276;9.946;2022-11-20T04:23:50;13.87;;;7.27;;
5841;SDS011;2947;52.276;9.946;2022-11-20T04:26:21;18.03;;;8.10;;
5841;SDS011;2947;52.276;9.946;2022-11-20T04:28:48;13.30;;;6.50;;
5841;SDS011;2947;52.276;9.946;2022-11-20T04:31:16;16.70;;;7.80;;
5841;SDS011;2947;52.276;9.946;2022-11-20T04:33:45;15.90;;;7.93;;
5841;SDS011;2947;52.276;9.946;2022-11-20T04:36:11;15.53;;;7.80;;
5841;SDS011;2947;52.276;9.946;2022-11-20T04:38:40;15.57;;;8.70;;
5841;SDS011;2947;52.276;9.946;2022-11-20T04:41:07;14.73;;;7.20;;
5841;SDS011;2947;52.276;9.946;2022-11-20T04:43:37;14.63;;;7.73;;
5841;SDS011;2947;52.276;9.946;2022-11-20T04:46:03;13.30;;;7.57;;
5841;SDS011;2947;52.276;9.946;2022-11-20T04:48:29;14.93;;;8.00;;
5841;SDS011;2947;52.276;9.946;2022-11-20T04:50:55;18.87;;;7.20;;
5841;SDS011;2947;52.276;9.946;2022-11-20T04:53:21;15.60;;;7.60;;
5841;SDS011;2947;52.276;9.946;2022-11-20T04:55:48;14.97;;;6.27;;
5841;SDS011;2947;52.276;9.946;2022-11-20T04:58:14;16.13;;;6.83;;
5841;SDS011;2947;52.276;9.946;2022-11-20T05:00:40;14.27;;;7.13;;
5841;SDS011;2947;52.276;9.946;2022-11-20T05:03:06;13.50;;;7.17;;
5841;SDS011;2947;52.276;9.946;2022-11-20T05:05:33;14.37;;;7.03;;
5841;SDS011;2947;52.276;9.946;2022-11-20T05:07:59;15.97;;;7.33;;
5841;SDS011;2947;52.276;9.946;2022-11-20T05:10:26;14.60;;;8.20;;
5841;SDS011;2947;52.276;9.946;2022-11-20T05:12:52;12.70;;;6.70;;
5841;SDS011;2947;52.276;9.946;2022-11-20T05:15:17;13.77;;;7.07;;
5841;SDS011;2947;52.276;9.946;2022-11-20T05:17:50;16.77;;;8.20;;
5841;SDS011;2947;52.276;9.946;2022-11-20T05:20:17;12.57;;;6.33;;
5841;SDS011;2947;52.276;9.946;2022-11-20T05:22:43;14.77;;;7.03;;
5841;SDS011;2947;52.276;9.946;2022-11-20T05:25:10;12.27;;;6.50;;
5841;SDS011;2947;52.276;9.946;2022-11-20T05:27:36;15.03;;;7.37;;
5841;SDS011;2947;52.276;9.946;2022-11-20T05:30:03;11.83;;;6.07;;
5841;SDS011;2947;52.276;9.946;2022-11-20T05:32:30;14.80;;;8.27;;
5841;SDS011;2947;52.276;9.946;2022-11-20T05:34:56;17.10;;;7.70;;
5841;SDS011;2947;52.276;9.946;2022-11-20T05:37:21;15.60;;;7.77;;
5841;SDS011;2947;52.276;9.946;2022-11-20T05:39:47;12.83;;;7.67;;
5841;SDS011;2947;52.276;9.946;2022-11-20T05:42:13;16.23;;;7.60;;
5841;SDS011;2947;52.276;9.946;2022-11-20T05:44:59;14.27;;;7.20;;
5841;SDS011;2947;52.276;9.946;2022-11-20T05:47:27;14.60;;;7.33;;
5841;SDS011;2947;52.276;9.946;2022-11-20T05:49:57;20.60;;;8.17;;
5841;SDS011;2947;52.276;9.946;2022-11-20T05:52:22;14.07;;;7.60;;
5841;SDS011;2947;52.276;9.946;2022-11-20T05:54:48;13.07;;;6.50;;
5841;SDS011;2947;52.276;9.946;2022-11-20T05:57:14;20.13;;;7.10;;
5841;SDS011;2947;52.276;9.946;2022-11-20T05:59:39;23.37;;;9.03;;
5841;SDS011;2947;52.276;9.946;2022-11-20T06:02:05;19.43;;;8.10;;
5841;SDS011;2947;52.276;9.946;2022-11-20T06:04:31;12.40;;;6.60;;
5841;SDS011;2947;52.276;9.946;2022-11-20T06:06:57;15.37;;;6.90;;
5841;SDS011;2947;52.276;9.946;2022-11-20T06:09:22;14.60;;;7.23;;
5841;SDS011;2947;52.276;9.946;2022-11-20T06:11:48;18.20;;;7.73;;
5841;SDS011;2947;52.276;9.946;2022-11-20T06:14:14;16.13;;;8.10;;
5841;SDS011;2947;52.276;9.946;2022-11-20T06:16:39;16.50;;;7.83;;
5841;SDS011;2947;52.276;9.946;2022-11-20T06:19:05;19.23;;;8.73;;
5841;SDS011;2947;52.276;9.946;2022-11-20T06:21:31;14.90;;;7.60;;
5841;SDS011;2947;52.276;9.946;2022-11-20T06:23:56;13.13;;;7.27;;
5841;SDS011;2947;52.276;9.946;2022-11-20T06:26:23;11.77;;;6.90;;
5841;SDS011;2947;52.276;9.946;2022-11-20T06:28:50;14.60;;;6.70;;
5841;SDS011;2947;52.276;9.946;2022-11-20T06:31:18;13.60;;;7.80;;
5841;SDS011;2947;52.276;9.946;2022-11-20T06:33:46;15.50;;;7.83;;
5841;SDS011;2947;52.276;9.946;2022-11-20T06:36:13;15.03;;;7.37;;
5841;SDS011;2947;52.276;9.946;2022-11-20T06:38:41;14.97;;;7.20;;
5841;SDS011;2947;52.276;9.946;2022-11-20T06:41:10;13.13;;;7.80;;
5841;SDS011;2947;52.276;9.946;2022-11-20T06:43:41;17.17;;;7.60;;
5841;SDS011;2947;52.276;9.946;2022-11-20T06:46:08;15.70;;;7.93;;
5841;SDS011;2947;52.276;9.946;2022-11-20T06:48:36;15.10;;;7.90;;
5841;SDS011;2947;52.276;9.946;2022-11-20T06:51:05;17.27;;;7.90;;
5841;SDS011;2947;52.276;9.946;2022-11-20T06:53:32;16.43;;;8.10;;
5841;SDS011;2947;52.276;9.946;2022-11-20T06:55:59;15.77;;;7.43;;
5841;SDS011;2947;52.276;9.946;2022-11-20T06:58:28;14.37;;;7.00;;
5841;SDS011;2947;52.276;9.946;2022-11-20T07:01:02;15.57;;;7.93;;
5841;SDS011;2947;52.276;9.946;2022-11-20T07:03:34;15.07;;;7.60;;
5841;SDS011;2947;52.276;9.946;2022-11-20T07:06:00;13.87;;;7.47;;
5841;SDS011;2947;52.276;9.946;2022-11-20T07:08:27;17.23;;;8.33;;
5841;SDS011;2947;52.276;9.946;2022-11-20T07:10:56;13.70;;;6.87;;
5841;SDS011;2947;52.276;9.946;2022-11-20T07:13:24;13.60;;;6.80;;
5841;SDS011;2947;52.276;9.946;2022-11-20T07:15:51;16.73;;;8.57;;
5841;SDS011;2947;52.276;9.946;2022-11-20T07:18:17;13.53;;;6.40;;
5841;SDS011;2947;52.276;9.946;2022-11-20T07:20:42;14.37;;;7.70;;
5841;SDS011;2947;52.276;9.946;2022-11-20T07:23:08;13.50;;;6.97;;
5841;SDS011;2947;52.276;9.946;2022-11-20T07:25:34;15.67;;;5.87;;
5841;SDS011;2947;52.276;9.946;2022-11-20T07:28:00;14.60;;;7.60;;
5841;SDS011;2947;52.276;9.946;2022-11-20T07:30:27;13.93;;;7.27;;
5841;SDS011;2947;52.276;9.946;2022-11-20T07:32:53;17.17;;;7.40;;
5841;SDS011;2947;52.276;9.946;2022-11-20T07:35:21;18.90;;;7.70;;
5841;SDS011;2947;52.276;9.946;2022-11-20T07:37:48;15.80;;;6.30;;
5841;SDS011;2947;52.276;9.946;2022-11-20T07:40:14;13.60;;;6.40;;
5841;SDS011;2947;52.276;9.946;2022-11-20T07:42:50;15.07;;;7.60;;
5841;SDS011;2947;52.276;9.946;2022-11-20T07:45:18;15.50;;;8.00;;
5841;SDS011;2947;52.276;9.946;2022-11-20T07:47:45;13.13;;;6.53;;
5841;SDS011;2947;52.276;9.946;2022-11-20T07:50:11;12.53;;;7.00;;
5841;SDS011;2947;52.276;9.946;2022-11-20T07:52:37;11.90;;;6.73;;
5841;SDS011;2947;52.276;9.946;2022-11-20T07:55:04;11.90;;;7.10;;
5841;SDS011;2947;52.276;9.946;2022-11-20T07:57:30;13.27;;;7.00;;
5841;SDS011;2947;52.276;9.946;2022-11-20T07:59:56;16.03;;;7.60;;
5841;SDS011;2947;52.276;9.946;2022-11-20T08:02:21;12.00;;;7.13;;
5841;SDS011;2947;52.276;9.946;2022-11-20T08:04:47;14.50;;;6.77;;
5841;SDS011;2947;52.276;9.946;2022-11-20T08:07:13;15.57;;;7.27;;
5841;SDS011;2947;52.276;9.946;2022-11-20T08:09:38;17.50;;;7.03;;
5841;SDS011;2947;52.276;9.946;2022-11-20T08:12:04;15.13;;;7.50;;
5841;SDS011;2947;52.276;9.946;2022-11-20T08:14:49;11.97;;;7.13;;
5841;SDS011;2947;52.276;9.946;2022-11-20T08:17:15;12.63;;;6.93;;
5841;SDS011;2947;52.276;9.946;2022-11-20T08:19:40;16.10;;;7.37;;
5841;SDS011;2947;52.276;9.946;2022-11-20T08:22:06;14.80;;;8.23;;
5841;SDS011;2947;52.276;9.946;2022-11-20T08:24:32;15.63;;;7.77;;
5841;SDS011;2947;52.276;9.946;2022-11-20T08:26:58;15.93;;;7.93;;
5841;SDS011;2947;52.276;9.946;2022-11-20T08:29:25;14.47;;;7.43;;
5841;SDS011;2947;52.276;9.946;2022-11-20T08:31:52;18.23;;;8.30;;
5841;SDS011;2947;52.276;9.946;2022-11-20T08:34:17;12.40;;;7.53;;
5841;SDS011;2947;52.276;9.946;2022-11-20T08:36:43;15.37;;;7.23;;
5841;SDS011;2947;52.276;9.946;2022-11-20T08:39:11;14.60;;;6.87;;
5841;SDS011;2947;52.276;9.946;2022-11-20T08:41:38;12.60;;;7.20;;
5841;SDS011;2947;52.276;9.946;2022-11-20T08:44:04;18.73;;;8.30;;
5841;SDS011;2947;52.276;9.946;2022-11-20T08:46:33;14.43;;;7.17;;
5841;SDS011;2947;52.276;9.946;2022-11-20T08:49:03;17.90;;;7.57;;
5841;SDS011;2947;52.276;9.946;2022-11-20T08:51:31;14.20;;;6.80;;
5841;SDS011;2947;52.276;9.946;2022-11-20T08:53:57;21.17;;;8.20;;
5841;SDS011;2947;52.276;9.946;2022-11-20T08:56:23;13.97;;;7.00;;
5841;SDS011;2947;52.276;9.946;2022-11-20T08:58:49;12.67;;;7.20;;
5841;SDS011;2947;52.276;9.946;2022-11-20T09:01:19;11.50;;;6.73;;
5841;SDS011;2947;52.276;9.946;2022-11-20T09:03:46;18.83;;;8.30;;
5841;SDS011;2947;52.276;9.946;2022-11-20T09:06:12;15.87;;;9.27;;
5841;SDS011;2947;52.276;9.946;2022-11-20T09:08:38;17.10;;;8.27;;
5841;SDS011;2947;52.276;9.946;2022-11-20T09:11:04;14.20;;;7.03;;
5841;SDS011;2947;52.276;9.946;2022-11-20T09:13:31;17.30;;;8.90;;
5841;SDS011;2947;52.276;9.946;2022-11-20T09:16:03;17.07;;;8.40;;
5841;SDS011;2947;52.276;9.946;2022-11-20T09:18:33;14.93;;;7.20;;
5841;SDS011;2947;52.276;9.946;2022-11-20T09:21:03;18.00;;;7.73;;
5841;SDS011;2947;52.276;9.946;2022-11-20T09:23:35;12.60;;;7.33;;
5841;SDS011;2947;52.276;9.946;2022-11-20T09:26:05;14.20;;;6.80;;
5841;SDS011;2947;52.276;9.946;2022-11-20T09:28:36;14.00;;;8.00;;
5841;SDS011;2947;52.276;9.946;2022-11-20T09:31:06;15.37;;;8.67;;
5841;SDS011;2947;52.276;9.946;2022-11-20T09:33:34;23.33;;;8.90;;
5841;SDS011;2947;52.276;9.946;2022-11-20T09:36:00;19.47;;;8.37;;
5841;SDS011;2947;52.276;9.946;2022-11-20T09:38:26;17.10;;;9.10;;
5841;SDS011;2947;52.276;9.946;2022-11-20T09:40:56;17.30;;;8.00;;
5841;SDS011;2947;52.276;9.946;2022-11-20T09:46:08;19.10;;;8.83;;
5841;SDS011;2947;52.276;9.946;2022-11-20T09:49:36;15.50;;;7.17;;
5841;SDS011;2947;52.276;9.946;2022-11-20T09:52:37;13.10;;;6.80;;
5841;SDS011;2947;52.276;9.946;2022-11-20T09:55:38;14.10;;;7.40;;
5841;SDS011;2947;52.276;9.946;2022-11-20T09:58:15;20.07;;;9.10;;
5841;SDS011;2947;52.276;9.946;2022-11-20T10:01:12;18.90;;;8.83;;
5841;SDS011;2947;52.276;9.946;2022-11-20T10:06:31;16.90;;;8.30;;
5841;SDS011;2947;52.276;9.946;2022-11-20T10:18:17;20.67;;;9.70;;
5841;SDS011;2947;52.276;9.946;2022-11-20T10:25:04;14.33;;;8.00;;
5841;SDS011;2947;52.276;9.946;2022-11-20T10:31:10;18.20;;;9.10;;
5841;SDS011;2947;52.276;9.946;2022-11-20T10:33:43;16.80;;;8.17;;
5841;SDS011;2947;52.276;9.946;2022-11-20T10:36:17;13.10;;;7.60;;
5841;SDS011;2947;52.276;9.946;2022-11-20T10:38:54;17.13;;;8.30;;
5841;SDS011;2947;52.276;9.946;2022-11-20T10:41:32;20.23;;;8.10;;
5841;SDS011;2947;52.276;9.946;2022-11-20T10:44:16;15.10;;;7.90;;
5841;SDS011;2947;52.276;9.946;2022-11-20T10:47:05;12.27;;;7.17;;
5841;SDS011;2947;52.276;9.946;2022-11-20T10:49:37;15.27;;;8.70;;
5841;SDS011;2947;52.276;9.946;2022-11-20T10:54:37;17.80;;;8.40;;
5841;SDS011;2947;52.276;9.946;2022-11-20T10:57:17;14.80;;;7.50;;
5841;SDS011;2947;52.276;9.946;2022-11-20T11:02:39;16.33;;;7.53;;
5841;SDS011;2947;52.276;9.946;2022-11-20T11:05:33;17.37;;;8.20;;
5841;SDS011;2947;52.276;9.946;2022-11-20T11:08:19;14.17;;;7.47;;
5841;SDS011;2947;52.276;9.946;2022-11-20T11:15:52;17.43;;;7.13;;
5841;SDS011;2947;52.276;9.946;2022-11-20T11:18:29;16.07;;;8.57;;
5841;SDS011;2947;52.276;9.946;2022-11-20T11:21:00;18.17;;;8.20;;
5841;SDS011;2947;52.276;9.946;2022-11-20T11:23:36;16.80;;;8.60;;
5841;SDS011;2947;52.276;9.946;2022-11-20T11:26:06;17.80;;;8.10;;
5841;SDS011;2947;52.276;9.946;2022-11-20T11:28:52;14.77;;;8.00;;
5841;SDS011;2947;52.276;9.946;2022-11-20T11:31:27;19.73;;;9.77;;
5841;SDS011;2947;52.276;9.946;2022-11-20T11:34:10;15.00;;;8.50;;
5841;SDS011;2947;52.276;9.946;2022-11-20T11:36:39;18.10;;;9.60;;
5841;SDS011;2947;52.276;9.946;2022-11-20T11:39:05;17.07;;;8.63;;
5841;SDS011;2947;52.276;9.946;2022-11-20T11:41:42;21.97;;;9.23;;
5841;SDS011;2947;52.276;9.946;2022-11-20T11:47:24;21.27;;;11.10;;
5841;SDS011;2947;52.276;9.946;2022-11-20T11:58:14;18.43;;;10.10;;
5841;SDS011;2947;52.276;9.946;2022-11-20T12:06:45;18.70;;;8.30;;
5841;SDS011;2947;52.276;9.946;2022-11-20T12:09:17;18.50;;;8.67;;
5841;SDS011;2947;52.276;9.946;2022-11-20T12:11:59;18.20;;;8.90;;
5841;SDS011;2947;52.276;9.946;2022-11-20T12:14:36;16.10;;;8.40;;
5841;SDS011;2947;52.276;9.946;2022-11-20T12:17:04;18.93;;;8.67;;
5841;SDS011;2947;52.276;9.946;2022-11-20T12:19:31;21.47;;;10.03;;
5841;SDS011;2947;52.276;9.946;2022-11-20T12:22:05;20.53;;;10.53;;
5841;SDS011;2947;52.276;9.946;2022-11-20T12:24:41;17.57;;;9.00;;
5841;SDS011;2947;52.276;9.946;2022-11-20T12:27:40;16.27;;;8.67;;
5841;SDS011;2947;52.276;9.946;2022-11-20T12:30:25;15.47;;;8.47;;
5841;SDS011;2947;52.276;9.946;2022-11-20T12:38:45;17.67;;;8.17;;
5841;SDS011;2947;52.276;9.946;2022-11-20T12:47:38;17.40;;;9.47;;
5841;SDS011;2947;52.276;9.946;2022-11-20T12:50:38;16.80;;;8.50;;
5841;SDS011;2947;52.276;9.946;2022-11-20T12:53:22;20.07;;;9.90;;
5841;SDS011;2947;52.276;9.946;2022-11-20T13:02:09;17.93;;;8.43;;
5841;SDS011;2947;52.276;9.946;2022-11-20T13:07:44;16.53;;;8.90;;
5841;SDS011;2947;52.276;9.946;2022-11-20T13:10:18;16.07;;;8.50;;
5841;SDS011;2947;52.276;9.946;2022-11-20T13:12:47;19.30;;;9.23;;
5841;SDS011;2947;52.276;9.946;2022-11-20T13:18:25;18.20;;;8.90;;
5841;SDS011;2947;52.276;9.946;2022-11-20T13:20:51;14.00;;;9.00;;
5841;SDS011;2947;52.276;9.946;2022-11-20T13:23:26;17.40;;;9.33;;
5841;SDS011;2947;52.276;9.946;2022-11-20T13:26:06;15.27;;;8.73;;
5841;SDS011;2947;52.276;9.946;2022-11-20T13:28:47;20.07;;;8.90;;
5841;SDS011;2947;52.276;9.946;2022-11-20T13:31:33;17.00;;;8.90;;
5841;SDS011;2947;52.276;9.946;2022-11-20T13:34:10;16.87;;;8.87;;
5841;SDS011;2947;52.276;9.946;2022-11-20T13:36:48;17.53;;;9.30;;
5841;SDS011;2947;52.276;9.946;2022-11-20T13:39:35;21.20;;;8.30;;
5841;SDS011;2947;52.276;9.946;2022-11-20T13:42:03;16.20;;;8.37;;
5841;SDS011;2947;52.276;9.946;2022-11-20T13:44:53;16.53;;;9.73;;
5841;SDS011;2947;52.276;9.946;2022-11-20T13:47:24;15.87;;;8.60;;
5841;SDS011;2947;52.276;9.946;2022-11-20T13:49:52;17.03;;;8.80;;
5841;SDS011;2947;52.276;9.946;2022-11-20T13:58:39;19.43;;;9.00;;
5841;SDS011;2947;52.276;9.946;2022-11-20T14:01:20;24.30;;;8.83;;
5841;SDS011;2947;52.276;9.946;2022-11-20T14:03:49;19.30;;;10.73;;
5841;SDS011;2947;52.276;9.946;2022-11-20T14:06:22;19.83;;;8.73;;
5841;SDS011;2947;52.276;9.946;2022-11-20T14:08:53;15.57;;;8.00;;
5841;SDS011;2947;52.276;9.946;2022-11-20T14:11:21;14.47;;;7.87;;
5841;SDS011;2947;52.276;9.946;2022-11-20T14:16:36;12.73;;;6.90;;
5841;SDS011;2947;52.276;9.946;2022-11-20T14:19:17;15.53;;;8.10;;
5841;SDS011;2947;52.276;9.946;2022-11-20T14:21:45;16.50;;;8.10;;
5841;SDS011;2947;52.276;9.946;2022-11-20T14:24:12;15.00;;;8.13;;
5841;SDS011;2947;52.276;9.946;2022-11-20T14:26:42;15.33;;;7.67;;
5841;SDS011;2947;52.276;9.946;2022-11-20T14:29:13;14.73;;;7.90;;
5841;SDS011;2947;52.276;9.946;2022-11-20T14:31:42;15.30;;;8.40;;
5841;SDS011;2947;52.276;9.946;2022-11-20T14:34:18;15.63;;;8.10;;
5841;SDS011;2947;52.276;9.946;2022-11-20T14:36:48;18.50;;;9.07;;
5841;SDS011;2947;52.276;9.946;2022-11-20T14:39:31;18.70;;;9.13;;
5841;SDS011;2947;52.276;9.946;2022-11-20T14:42:18;14.87;;;7.83;;
5841;SDS011;2947;52.276;9.946;2022-11-20T14:44:49;16.43;;;8.47;;
5841;SDS011;2947;52.276;9.946;2022-11-20T14:47:18;18.97;;;8.30;;
5841;SDS011;2947;52.276;9.946;2022-11-20T14:49:49;15.10;;;8.20;;
5841;SDS011;2947;52.276;9.946;2022-11-20T14:52:18;16.73;;;8.73;;
5841;SDS011;2947;52.276;9.946;2022-11-20T14:54:47;16.73;;;9.33;;
5841;SDS011;2947;52.276;9.946;2022-11-20T14:57:28;17.20;;;8.60;;
5841;SDS011;2947;52.276;9.946;2022-11-20T15:02:42;13.80;;;8.53;;
5841;SDS011;2947;52.276;9.946;2022-11-20T15:05:10;14.97;;;8.47;;
5841;SDS011;2947;52.276;9.946;2022-11-20T15:07:37;16.17;;;8.27;;
5841;SDS011;2947;52.276;9.946;2022-11-20T15:10:11;16.80;;;8.30;;
5841;SDS011;2947;52.276;9.946;2022-11-20T15:12:52;14.43;;;8.40;;
5841;SDS011;2947;52.276;9.946;2022-11-20T15:15:32;16.97;;;8.80;;
5841;SDS011;2947;52.276;9.946;2022-11-20T15:18:09;17.73;;;8.83;;
5841;SDS011;2947;52.276;9.946;2022-11-20T15:20:42;20.10;;;10.03;;
5841;SDS011;2947;52.276;9.946;2022-11-20T15:23:12;17.00;;;9.20;;
5841;SDS011;2947;52.276;9.946;2022-11-20T15:25:40;23.23;;;9.27;;
5841;SDS011;2947;52.276;9.946;2022-11-20T15:28:12;18.67;;;9.40;;
5841;SDS011;2947;52.276;9.946;2022-11-20T15:30:58;18.00;;;8.70;;
5841;SDS011;2947;52.276;9.946;2022-11-20T15:33:24;19.57;;;10.30;;
5841;SDS011;2947;52.276;9.946;2022-11-20T15:35:50;19.87;;;10.20;;
5841;SDS011;2947;52.276;9.946;2022-11-20T15:38:16;19.30;;;9.77;;
5841;SDS011;2947;52.276;9.946;2022-11-20T15:40:42;18.70;;;8.27;;
5841;SDS011;2947;52.276;9.946;2022-11-20T15:43:07;17.47;;;9.00;;
5841;SDS011;2947;52.276;9.946;2022-11-20T15:45:43;20.57;;;9.70;;
5841;SDS011;2947;52.276;9.946;2022-11-20T15:48:16;21.37;;;11.03;;
5841;SDS011;2947;52.276;9.946;2022-11-20T15:53:57;20.33;;;9.43;;
5841;SDS011;2947;52.276;9.946;2022-11-20T15:56:23;15.60;;;8.53;;
5841;SDS011;2947;52.276;9.946;2022-11-20T15:58:49;24.77;;;9.97;;
5841;SDS011;2947;52.276;9.946;2022-11-20T16:01:17;25.70;;;12.63;;
5841;SDS011;2947;52.276;9.946;2022-11-20T16:03:46;53.47;;;21.87;;
5841;SDS011;2947;52.276;9.946;2022-11-20T16:06:12;134.23;;;45.83;;
5841;SDS011;2947;52.276;9.946;2022-11-20T16:08:38;113.77;;;41.60;;
5841;SDS011;2947;52.276;9.946;2022-11-20T16:11:03;36.40;;;16.40;;
5841;SDS011;2947;52.276;9.946;2022-11-20T16:13:30;30.77;;;15.57;;
5841;SDS011;2947;52.276;9.946;2022-11-20T16:16:26;62.60;;;25.30;;
5841;SDS011;2947;52.276;9.946;2022-11-20T16:18:58;43.63;;;19.63;;
5841;SDS011;2947;52.276;9.946;2022-11-20T16:21:25;28.50;;;15.10;;
5841;SDS011;2947;52.276;9.946;2022-11-20T16:23:58;27.97;;;13.80;;
5841;SDS011;2947;52.276;9.946;2022-11-20T16:26:25;30.40;;;15.07;;
5841;SDS011;2947;52.276;9.946;2022-11-20T16:28:51;27.43;;;14.40;;
5841;SDS011;2947;52.276;9.946;2022-11-20T16:31:18;33.80;;;17.00;;
5841;SDS011;2947;52.276;9.946;2022-11-20T16:33:49;31.20;;;16.87;;
5841;SDS011;2947;52.276;9.946;2022-11-20T16:36:20;26.60;;;13.43;;
5841;SDS011;2947;52.276;9.946;2022-11-20T16:38:55;20.70;;;10.80;;
5841;SDS011;2947;52.276;9.946;2022-11-20T16:41:24;20.47;;;10.73;;
5841;SDS011;2947;52.276;9.946;2022-11-20T16:43:55;21.90;;;11.30;;
5841;SDS011;2947;52.276;9.946;2022-11-20T16:46:24;22.13;;;10.40;;
5841;SDS011;2947;52.276;9.946;2022-11-20T16:49:02;23.50;;;10.37;;
5841;SDS011;2947;52.276;9.946;2022-11-20T16:51:30;18.20;;;9.00;;
5841;SDS011;2947;52.276;9.946;2022-11-20T16:54:02;19.37;;;9.77;;